createdAt,value
2023-05-06T00:00:35.398Z,75.40
2023-05-06T00:01:35.401Z,69.40
2023-05-06T00:02:35.440Z,69.30
2023-05-06T00:03:35.624Z,71.00
2023-05-06T00:04:35.399Z,62.30
2023-05-06T00:05:35.375Z,69.40
2023-05-06T00:06:35.329Z,67.10
2023-05-06T00:07:35.339Z,62.90
2023-05-06T00:08:35.332Z,63.50
2023-05-06T00:09:35.314Z,57.10
2023-05-06T00:10:35.347Z,55.50
2023-05-06T00:11:35.321Z,56.20
2023-05-06T00:12:35.277Z,59.30
2023-05-06T00:13:35.267Z,61.40
2023-05-06T00:14:35.261Z,61.50
2023-05-06T00:15:35.276Z,62.30
2023-05-06T00:16:35.306Z,66.20
2023-05-06T00:17:35.239Z,62.80
2023-05-06T00:18:35.218Z,62.50
2023-05-06T00:19:35.212Z,67.00
2023-05-06T00:20:35.176Z,69.30
2023-05-06T00:21:35.189Z,62.00
2023-05-06T00:22:35.180Z,58.80
2023-05-06T00:23:35.183Z,59.40
2023-05-06T00:24:35.128Z,64.10
2023-05-06T00:25:35.135Z,60.20
2023-05-06T00:26:35.116Z,61.90
2023-05-06T00:27:35.149Z,55.40
2023-05-06T00:28:35.142Z,58.10
2023-05-06T00:29:35.114Z,57.10
2023-05-06T00:30:35.090Z,57.20
2023-05-06T00:31:35.178Z,56.20
2023-05-06T00:32:35.401Z,54.60
2023-05-06T00:33:35.063Z,55.60
2023-05-06T00:34:35.039Z,49.90
2023-05-06T00:35:35.046Z,50.30
2023-05-06T00:36:35.023Z,50.10
2023-05-06T00:37:35.015Z,48.60
2023-05-06T00:38:34.976Z,50.50
2023-05-06T00:39:34.998Z,46.60
2023-05-06T00:40:34.989Z,48.40
2023-05-06T00:41:34.997Z,48.70
2023-05-06T00:42:34.962Z,47.80
2023-05-06T00:43:34.947Z,45.90
2023-05-06T00:44:34.918Z,46.10
2023-05-06T00:45:34.928Z,44.70
2023-05-06T00:46:34.932Z,43.60
2023-05-06T00:47:34.944Z,42.00
2023-05-06T00:48:34.875Z,42.60
2023-05-06T00:49:34.896Z,43.00
2023-05-06T00:50:34.894Z,43.40
2023-05-06T00:51:34.861Z,43.20
2023-05-06T00:52:34.855Z,44.80
2023-05-06T00:53:34.881Z,43.00
2023-05-06T00:54:34.837Z,44.20
2023-05-06T00:55:34.831Z,44.70
2023-05-06T00:56:34.798Z,46.30
2023-05-06T00:57:34.804Z,47.60
2023-05-06T00:58:34.808Z,47.00
2023-05-06T00:59:34.791Z,43.50
2023-05-06T01:00:34.761Z,45.80
2023-05-06T01:01:34.964Z,47.00
2023-05-06T01:02:46.480Z,45.70
2023-05-06T01:03:34.818Z,44.20
2023-05-06T01:04:34.734Z,43.50
2023-05-06T01:05:34.741Z,43.10
2023-05-06T01:06:34.696Z,43.90
2023-05-06T01:07:34.781Z,45.00
2023-05-06T01:08:34.664Z,47.60
2023-05-06T01:09:34.673Z,44.00
2023-05-06T01:10:34.694Z,47.80
2023-05-06T01:11:34.653Z,49.30
2023-05-06T01:12:34.664Z,44.40
2023-05-06T01:13:34.641Z,48.60
2023-05-06T01:14:34.619Z,45.00
2023-05-06T01:15:34.623Z,45.60
2023-05-06T01:16:34.642Z,44.30
2023-05-06T01:17:34.661Z,41.90
2023-05-06T01:18:34.569Z,42.50
2023-05-06T01:19:34.574Z,44.70
2023-05-06T01:20:34.545Z,42.40
2023-05-06T01:21:34.596Z,42.40
2023-05-06T01:22:34.559Z,43.60
2023-05-06T01:23:34.559Z,39.50
2023-05-06T01:24:34.522Z,42.40
2023-05-06T01:25:34.517Z,42.00
2023-05-06T01:26:34.488Z,43.60
2023-05-06T01:27:34.492Z,41.60
2023-05-06T01:28:34.484Z,40.20
2023-05-06T01:29:34.480Z,40.60
2023-05-06T01:30:34.439Z,41.70
2023-05-06T01:31:34.499Z,42.50
2023-05-06T01:32:34.432Z,43.50
2023-05-06T01:33:34.424Z,46.00
2023-05-06T01:34:34.436Z,44.10
2023-05-06T01:35:34.415Z,43.60
2023-05-06T01:36:34.370Z,41.10
2023-05-06T01:37:34.391Z,42.20
2023-05-06T01:38:34.379Z,41.00
2023-05-06T01:39:34.359Z,41.70
2023-05-06T01:40:34.365Z,41.10
2023-05-06T01:41:34.337Z,41.80
2023-05-06T01:42:34.372Z,41.90
2023-05-06T01:43:34.315Z,40.30
2023-05-06T01:44:34.295Z,41.30
2023-05-06T01:45:34.315Z,40.40
2023-05-06T01:46:34.367Z,40.30
2023-05-06T01:47:34.345Z,41.30
2023-05-06T01:48:34.262Z,39.20
2023-05-06T01:49:34.257Z,39.60
2023-05-06T01:50:34.244Z,38.00
2023-05-06T01:51:34.290Z,38.60
2023-05-06T01:52:34.259Z,39.40
2023-05-06T01:53:34.226Z,38.50
2023-05-06T01:54:34.202Z,38.50
2023-05-06T01:55:34.197Z,41.60
2023-05-06T01:56:34.198Z,38.50
2023-05-06T01:57:34.177Z,39.40
2023-05-06T01:58:34.157Z,36.90
2023-05-06T01:59:34.171Z,33.80
2023-05-06T02:00:34.128Z,35.60
2023-05-06T02:01:34.149Z,34.20
2023-05-06T02:02:34.170Z,35.70
2023-05-06T02:03:34.173Z,33.40
2023-05-06T02:04:34.100Z,35.50
2023-05-06T02:05:34.099Z,36.50
2023-05-06T02:06:34.066Z,35.20
2023-05-06T02:07:34.099Z,34.90
2023-05-06T02:08:34.037Z,32.40
2023-05-06T02:09:34.051Z,37.80
2023-05-06T02:10:34.040Z,35.40
2023-05-06T02:11:34.050Z,36.50
2023-05-06T02:12:34.010Z,35.00
2023-05-06T02:13:34.005Z,34.80
2023-05-06T02:14:33.992Z,32.20
2023-05-06T02:15:33.999Z,33.10
2023-05-06T02:16:34.015Z,36.20
2023-05-06T02:17:34.037Z,32.40
2023-05-06T02:18:33.931Z,32.20
2023-05-06T02:19:33.950Z,34.50
2023-05-06T02:20:33.907Z,32.80
2023-05-06T02:21:33.928Z,33.80
2023-05-06T02:22:33.899Z,34.80
2023-05-06T02:23:33.911Z,34.30
2023-05-06T02:24:33.871Z,34.20
2023-05-06T02:25:33.887Z,35.50
2023-05-06T02:26:33.862Z,35.70
2023-05-06T02:27:33.879Z,36.50
2023-05-06T02:28:33.856Z,34.40
2023-05-06T02:29:33.841Z,36.20
2023-05-06T02:30:33.813Z,35.50
2023-05-06T02:31:33.844Z,39.30
2023-05-06T02:32:33.827Z,40.00
2023-05-06T02:33:33.792Z,37.00
2023-05-06T02:34:33.781Z,38.40
2023-05-06T02:35:33.778Z,38.40
2023-05-06T02:36:33.763Z,40.50
2023-05-06T02:37:33.780Z,42.20
2023-05-06T02:38:33.724Z,40.20
2023-05-06T02:39:33.739Z,39.70
2023-05-06T02:40:33.757Z,39.50
2023-05-06T02:41:33.752Z,38.80
2023-05-06T02:42:33.731Z,35.80
2023-05-06T02:43:33.704Z,35.80
2023-05-06T02:44:33.694Z,37.00
2023-05-06T02:45:33.693Z,38.90
2023-05-06T02:46:33.655Z,36.40
2023-05-06T02:47:33.676Z,36.40
2023-05-06T02:48:33.613Z,36.80
2023-05-06T02:49:33.636Z,37.90
2023-05-06T02:50:33.600Z,37.70
2023-05-06T02:51:33.605Z,38.40
2023-05-06T02:52:33.590Z,37.30
2023-05-06T02:53:33.594Z,37.20
2023-05-06T02:54:33.558Z,37.10
2023-05-06T02:55:33.566Z,35.10
2023-05-06T02:56:33.528Z,34.10
2023-05-06T02:57:33.535Z,34.10
2023-05-06T02:58:33.540Z,33.60
2023-05-06T02:59:33.522Z,33.30
2023-05-06T03:00:33.508Z,33.60
2023-05-06T03:01:33.595Z,34.40
2023-05-06T03:02:33.546Z,30.20
2023-05-06T03:03:33.491Z,30.20
2023-05-06T03:04:33.523Z,34.30
2023-05-06T03:05:33.451Z,30.80
2023-05-06T03:06:33.436Z,30.50
2023-05-06T03:07:33.437Z,30.70
2023-05-06T03:08:33.399Z,31.70
2023-05-06T03:09:33.550Z,30.80
2023-05-06T03:10:33.396Z,29.80
2023-05-06T03:11:33.389Z,31.90
2023-05-06T03:12:33.410Z,33.10
2023-05-06T03:13:33.385Z,31.00
2023-05-06T03:14:33.341Z,32.30
2023-05-06T03:15:33.335Z,31.80
2023-05-06T03:16:33.370Z,32.10
2023-05-06T03:17:33.345Z,30.90
2023-05-06T03:18:33.320Z,30.60
2023-05-06T03:19:33.303Z,35.20
2023-05-06T03:20:33.296Z,34.10
2023-05-06T03:21:33.388Z,34.90
2023-05-06T03:22:33.300Z,30.70
2023-05-06T03:23:33.259Z,30.40
2023-05-06T03:24:33.267Z,33.30
2023-05-06T03:25:33.242Z,33.70
2023-05-06T03:26:33.249Z,37.10
2023-05-06T03:27:33.212Z,32.10
2023-05-06T03:28:33.291Z,33.60
2023-05-06T03:29:33.192Z,36.30
2023-05-06T03:30:33.193Z,34.30
2023-05-06T03:31:33.211Z,32.60
2023-05-06T03:32:33.196Z,32.30
2023-05-06T03:33:33.134Z,33.30
2023-05-06T03:34:33.175Z,32.60
2023-05-06T03:35:33.123Z,32.30
2023-05-06T03:36:33.140Z,33.00
2023-05-06T03:37:33.116Z,33.50
2023-05-06T03:38:33.103Z,30.00
2023-05-06T03:39:33.083Z,31.20
2023-05-06T03:40:33.134Z,30.80
2023-05-06T03:41:33.076Z,28.40
2023-05-06T03:42:33.075Z,30.80
2023-05-06T03:43:33.058Z,30.90
2023-05-06T03:44:33.048Z,29.80
2023-05-06T03:45:33.027Z,33.30
2023-05-06T03:46:33.115Z,31.60
2023-05-06T03:47:33.033Z,33.20
2023-05-06T03:48:33.007Z,32.10
2023-05-06T03:49:32.992Z,31.90
2023-05-06T03:50:32.988Z,32.70
2023-05-06T03:51:32.946Z,32.90
2023-05-06T03:52:32.975Z,32.70
2023-05-06T03:53:32.952Z,32.50
2023-05-06T03:54:32.947Z,32.70
2023-05-06T03:55:32.914Z,32.60
2023-05-06T03:56:32.928Z,31.60
2023-05-06T03:57:32.898Z,30.60
2023-05-06T03:58:32.910Z,34.20
2023-05-06T03:59:32.879Z,32.60
2023-05-06T04:00:32.877Z,30.80
2023-05-06T04:01:32.842Z,31.20
2023-05-06T04:02:32.925Z,32.30
2023-05-06T04:03:32.892Z,33.30
2023-05-06T04:04:32.860Z,37.80
2023-05-06T04:05:32.822Z,35.30
2023-05-06T04:06:32.788Z,36.70
2023-05-06T04:07:32.822Z,31.70
2023-05-06T04:08:32.765Z,32.10
2023-05-06T04:09:32.777Z,34.30
2023-05-06T04:10:32.771Z,35.50
2023-05-06T04:11:32.771Z,35.30
2023-05-06T04:12:32.745Z,36.60
2023-05-06T04:13:32.744Z,38.40
2023-05-06T04:14:32.742Z,38.80
2023-05-06T04:15:32.723Z,35.90
2023-05-06T04:16:32.965Z,38.10
2023-05-06T04:17:32.718Z,39.60
2023-05-06T04:18:32.674Z,39.20
2023-05-06T04:19:32.696Z,38.20
2023-05-06T04:20:32.646Z,37.30
2023-05-06T04:21:32.665Z,37.00
2023-05-06T04:22:32.635Z,36.20
2023-05-06T04:23:32.634Z,37.80
2023-05-06T04:24:32.607Z,36.90
2023-05-06T04:25:32.606Z,37.70
2023-05-06T04:26:32.575Z,37.80
2023-05-06T04:27:32.585Z,38.20
2023-05-06T04:28:32.584Z,35.80
2023-05-06T04:29:32.580Z,38.10
2023-05-06T04:30:32.559Z,40.00
2023-05-06T04:31:32.583Z,38.80
2023-05-06T04:32:32.536Z,38.70
2023-05-06T04:33:32.529Z,38.40
2023-05-06T04:34:32.533Z,37.20
2023-05-06T04:35:32.509Z,38.20
2023-05-06T04:36:32.493Z,37.80
2023-05-06T04:37:32.489Z,36.90
2023-05-06T04:38:32.460Z,36.00
2023-05-06T04:39:32.465Z,38.50
2023-05-06T04:40:32.458Z,39.00
2023-05-06T04:41:32.440Z,40.50
2023-05-06T04:42:32.438Z,34.80
2023-05-06T04:43:32.424Z,35.40
2023-05-06T04:44:32.398Z,34.80
2023-05-06T04:45:32.439Z,34.20
2023-05-06T04:46:32.415Z,35.20
2023-05-06T04:47:32.545Z,31.90
2023-05-06T04:48:32.360Z,31.60
2023-05-06T04:49:32.362Z,32.90
2023-05-06T04:50:32.339Z,30.40
2023-05-06T04:51:32.350Z,34.30
2023-05-06T04:52:32.333Z,32.30
2023-05-06T04:53:32.331Z,31.20
2023-05-06T04:54:32.290Z,31.10
2023-05-06T04:55:32.306Z,31.60
2023-05-06T04:56:32.277Z,30.90
2023-05-06T04:57:32.286Z,30.50
2023-05-06T04:58:32.263Z,28.50
2023-05-06T04:59:32.312Z,28.20
2023-05-06T05:00:32.278Z,32.10
2023-05-06T05:01:32.350Z,31.00
2023-05-06T05:02:32.313Z,30.80
2023-05-06T05:03:32.424Z,34.70
2023-05-06T05:04:32.224Z,36.00
2023-05-06T05:05:32.200Z,34.20
2023-05-06T05:06:32.181Z,31.40
2023-05-06T05:07:32.175Z,29.40
2023-05-06T05:08:32.172Z,30.00
2023-05-06T05:09:32.158Z,33.40
2023-05-06T05:10:34.520Z,32.90
2023-05-06T05:11:32.151Z,33.90
2023-05-06T05:12:32.113Z,30.00
2023-05-06T05:13:32.161Z,32.20
2023-05-06T05:14:32.071Z,30.50
2023-05-06T05:15:32.096Z,30.00
2023-05-06T05:16:32.193Z,32.30
2023-05-06T05:17:32.096Z,34.90
2023-05-06T05:18:32.072Z,35.60
2023-05-06T05:19:32.099Z,34.10
2023-05-06T05:20:32.024Z,32.90
2023-05-06T05:21:32.029Z,33.50
2023-05-06T05:22:32.022Z,32.40
2023-05-06T05:23:32.016Z,34.10
2023-05-06T05:24:31.983Z,33.00
2023-05-06T05:25:31.981Z,33.00
2023-05-06T05:26:31.981Z,30.70
2023-05-06T05:27:31.982Z,33.40
2023-05-06T05:28:31.991Z,33.00
2023-05-06T05:29:31.947Z,34.20
2023-05-06T05:30:31.980Z,34.40
2023-05-06T05:31:31.946Z,31.50
2023-05-06T05:32:31.926Z,35.00
2023-05-06T05:33:31.941Z,36.20
2023-05-06T05:34:31.898Z,35.30
2023-05-06T05:35:31.908Z,37.50
2023-05-06T05:36:31.840Z,34.60
2023-05-06T05:37:31.891Z,35.90
2023-05-06T05:38:31.824Z,35.70
2023-05-06T05:39:31.849Z,36.50
2023-05-06T05:40:31.813Z,33.50
2023-05-06T05:41:31.835Z,33.60
2023-05-06T05:42:31.780Z,35.10
2023-05-06T05:43:31.796Z,34.80
2023-05-06T05:44:31.766Z,35.30
2023-05-06T05:45:31.778Z,36.70
2023-05-06T05:46:31.834Z,35.70
2023-05-06T05:47:31.761Z,35.50
2023-05-06T05:48:31.715Z,36.70
2023-05-06T05:49:31.725Z,36.10
2023-05-06T05:50:31.716Z,35.30
2023-05-06T05:51:31.723Z,36.20
2023-05-06T05:52:31.700Z,35.90
2023-05-06T05:53:31.682Z,35.30
2023-05-06T05:54:31.656Z,34.30
2023-05-06T05:55:31.665Z,38.10
2023-05-06T05:56:31.643Z,36.60
2023-05-06T05:57:31.641Z,37.30
2023-05-06T05:58:31.649Z,38.00
2023-05-06T05:59:31.633Z,38.20
2023-05-06T06:00:31.613Z,39.00
2023-05-06T06:01:31.609Z,37.60
2023-05-06T06:02:31.686Z,37.50
2023-05-06T06:03:31.740Z,40.90
2023-05-06T06:04:31.671Z,38.90
2023-05-06T06:05:31.562Z,38.90
2023-05-06T06:06:31.514Z,39.10
2023-05-06T06:07:31.542Z,38.70
2023-05-06T06:08:31.496Z,38.30
2023-05-06T06:09:31.527Z,37.70
2023-05-06T06:10:31.496Z,38.30
2023-05-06T06:11:31.504Z,39.40
2023-05-06T06:12:31.463Z,40.10
2023-05-06T06:13:31.703Z,39.00
2023-05-06T06:14:31.444Z,40.00
2023-05-06T06:15:31.444Z,40.90
2023-05-06T06:16:31.464Z,40.30
2023-05-06T06:17:31.697Z,38.60
2023-05-06T06:18:31.419Z,34.60
2023-05-06T06:19:31.406Z,35.00
2023-05-06T06:20:31.374Z,35.20
2023-05-06T06:21:31.386Z,34.10
2023-05-06T06:22:31.393Z,33.50
2023-05-06T06:23:31.369Z,33.70
2023-05-06T06:24:31.356Z,34.70
2023-05-06T06:25:31.344Z,36.10
2023-05-06T06:26:31.318Z,34.30
2023-05-06T06:27:31.324Z,34.80
2023-05-06T06:28:31.314Z,33.60
2023-05-06T06:29:31.372Z,33.30
2023-05-06T06:30:31.266Z,31.70
2023-05-06T06:31:31.293Z,31.10
2023-05-06T06:32:31.269Z,28.90
2023-05-06T06:33:31.263Z,28.30
2023-05-06T06:34:31.260Z,28.00
2023-05-06T06:35:31.258Z,25.40
2023-05-06T06:36:31.202Z,28.20
2023-05-06T06:37:31.228Z,31.80
2023-05-06T06:38:31.194Z,26.40
2023-05-06T06:39:31.230Z,28.70
2023-05-06T06:40:31.180Z,28.50
2023-05-06T06:41:31.194Z,32.10
2023-05-06T06:42:31.140Z,25.50
2023-05-06T06:43:31.158Z,25.30
2023-05-06T06:44:31.127Z,25.00
2023-05-06T06:45:31.147Z,24.90
2023-05-06T06:46:31.123Z,22.90
2023-05-06T06:47:31.159Z,27.50
2023-05-06T06:48:31.086Z,24.90
2023-05-06T06:49:31.098Z,25.80
2023-05-06T06:50:31.078Z,22.90
2023-05-06T06:51:31.076Z,17.80
2023-05-06T06:52:31.137Z,19.90
2023-05-06T06:53:31.046Z,18.00
2023-05-06T06:54:31.037Z,18.60
2023-05-06T06:55:31.031Z,18.80
2023-05-06T06:56:31.007Z,15.90
2023-05-06T06:57:31.032Z,16.70
2023-05-06T06:58:31.002Z,17.80
2023-05-06T06:59:31.021Z,16.90
2023-05-06T07:00:30.961Z,17.00
2023-05-06T07:01:31.002Z,15.40
2023-05-06T07:02:30.947Z,17.10
2023-05-06T07:03:30.947Z,16.10
2023-05-06T07:04:30.978Z,17.80
2023-05-06T07:05:30.922Z,14.70
2023-05-06T07:06:30.893Z,14.70
2023-05-06T07:07:30.917Z,13.60
2023-05-06T07:08:30.883Z,15.00
2023-05-06T07:09:30.878Z,13.30
2023-05-06T07:10:30.902Z,15.00
2023-05-06T07:11:30.864Z,15.00
2023-05-06T07:12:30.827Z,14.00
2023-05-06T07:13:30.837Z,14.60
2023-05-06T07:14:30.809Z,14.80
2023-05-06T07:15:30.831Z,14.00
2023-05-06T07:16:30.896Z,13.70
2023-05-06T07:17:30.800Z,14.00
2023-05-06T07:18:30.768Z,15.70
2023-05-06T07:19:30.786Z,14.60
2023-05-06T07:20:30.746Z,14.60
2023-05-06T07:21:30.762Z,15.60
2023-05-06T07:22:30.748Z,16.30
2023-05-06T07:23:32.161Z,16.40
2023-05-06T07:24:30.695Z,17.90
2023-05-06T07:25:30.705Z,16.50
2023-05-06T07:26:30.680Z,16.80
2023-05-06T07:27:30.681Z,15.50
2023-05-06T07:28:30.931Z,15.00
2023-05-06T07:29:30.676Z,15.20
2023-05-06T07:30:30.633Z,16.70
2023-05-06T07:31:30.673Z,16.10
2023-05-06T07:32:30.691Z,16.50
2023-05-06T07:33:30.641Z,16.70
2023-05-06T07:34:30.613Z,16.80
2023-05-06T07:35:30.617Z,15.60
2023-05-06T07:36:30.568Z,15.00
2023-05-06T07:37:30.591Z,16.50
2023-05-06T07:38:30.539Z,15.90
2023-05-06T07:39:30.555Z,18.00
2023-05-06T07:40:30.548Z,16.30
2023-05-06T07:41:30.541Z,17.10
2023-05-06T07:42:30.512Z,17.30
2023-05-06T07:43:30.530Z,16.80
2023-05-06T07:44:30.483Z,16.00
2023-05-06T07:45:30.495Z,15.10
2023-05-06T07:46:30.640Z,16.60
2023-05-06T07:47:30.543Z,16.90
2023-05-06T07:48:30.529Z,16.90
2023-05-06T07:49:30.451Z,16.30
2023-05-06T07:50:30.421Z,16.20
2023-05-06T07:51:30.431Z,15.60
2023-05-06T07:52:30.412Z,17.30
2023-05-06T07:53:30.426Z,16.50
2023-05-06T07:54:30.379Z,16.70
2023-05-06T07:55:30.393Z,18.10
2023-05-06T07:56:30.363Z,16.70
2023-05-06T07:57:30.382Z,16.50
2023-05-06T07:58:30.351Z,16.80
2023-05-06T07:59:30.353Z,20.80
2023-05-06T08:00:30.348Z,17.40
2023-05-06T08:01:30.327Z,17.20
2023-05-06T08:02:30.387Z,17.30
2023-05-06T08:03:30.441Z,16.70
2023-05-06T08:04:30.342Z,18.40
2023-05-06T08:05:30.283Z,16.60
2023-05-06T08:06:30.254Z,17.70
2023-05-06T08:07:30.285Z,16.60
2023-05-06T08:08:30.239Z,15.70
2023-05-06T08:09:30.253Z,15.60
2023-05-06T08:10:30.249Z,17.00
2023-05-06T08:11:30.222Z,16.90
2023-05-06T08:12:30.207Z,17.20
2023-05-06T08:13:30.206Z,16.90
2023-05-06T08:14:30.170Z,18.20
2023-05-06T08:15:30.209Z,17.50
2023-05-06T08:16:30.185Z,17.40
2023-05-06T08:17:30.182Z,18.30
2023-05-06T08:18:30.248Z,16.30
2023-05-06T08:19:30.119Z,16.80
2023-05-06T08:20:30.142Z,16.80
2023-05-06T08:21:30.111Z,17.00
2023-05-06T08:22:30.134Z,17.00
2023-05-06T08:23:30.103Z,16.60
2023-05-06T08:24:30.109Z,16.40
2023-05-06T08:25:30.059Z,15.80
2023-05-06T08:26:30.073Z,15.90
2023-05-06T08:27:30.045Z,15.80
2023-05-06T08:28:30.095Z,15.20
2023-05-06T08:29:30.029Z,15.20
2023-05-06T08:30:30.053Z,15.70
2023-05-06T08:31:30.068Z,14.80
2023-05-06T08:32:30.058Z,15.80
2023-05-06T08:33:29.985Z,14.40
2023-05-06T08:34:30.050Z,13.10
2023-05-06T08:35:29.984Z,12.10
2023-05-06T08:36:29.976Z,11.90
2023-05-06T08:37:29.939Z,12.90
2023-05-06T08:38:29.945Z,12.70
2023-05-06T08:39:29.944Z,13.50
2023-05-06T08:40:29.988Z,12.30
2023-05-06T08:41:29.933Z,11.30
2023-05-06T08:42:29.907Z,10.80
2023-05-06T08:43:29.878Z,10.50
2023-05-06T08:44:29.908Z,10.60
2023-05-06T08:45:29.915Z,10.70
2023-05-06T08:46:29.895Z,10.80
2023-05-06T08:47:30.059Z,11.20
2023-05-06T08:48:29.850Z,12.70
2023-05-06T08:49:29.812Z,12.30
2023-05-06T08:50:29.838Z,12.20
2023-05-06T08:51:29.794Z,11.80
2023-05-06T08:52:29.837Z,11.30
2023-05-06T08:53:29.795Z,12.60
2023-05-06T08:54:29.796Z,10.30
2023-05-06T08:55:29.765Z,9.30
2023-05-06T08:56:29.757Z,9.90
2023-05-06T08:57:29.732Z,9.30
2023-05-06T08:58:29.773Z,9.40
2023-05-06T08:59:29.712Z,9.80
2023-05-06T09:00:29.720Z,10.00
2023-05-06T09:01:29.784Z,9.60
2023-05-06T09:02:29.755Z,9.80
2023-05-06T09:03:29.894Z,9.30
2023-05-06T09:04:29.710Z,9.40
2023-05-06T09:05:29.660Z,8.60
2023-05-06T09:06:29.664Z,7.70
2023-05-06T09:07:29.623Z,7.20
2023-05-06T09:08:29.643Z,8.40
2023-05-06T09:09:29.604Z,9.30
2023-05-06T09:10:29.659Z,8.40
2023-05-06T09:11:29.642Z,8.60
2023-05-06T09:12:29.603Z,8.80
2023-05-06T09:13:29.566Z,8.90
2023-05-06T09:14:29.574Z,8.90
2023-05-06T09:15:29.564Z,8.80
2023-05-06T09:16:29.694Z,8.40
2023-05-06T09:17:29.540Z,8.50
2023-05-06T09:18:29.541Z,7.10
2023-05-06T09:19:29.506Z,7.40
2023-05-06T09:20:29.521Z,7.80
2023-05-06T09:21:29.494Z,8.60
2023-05-06T09:22:29.552Z,8.20
2023-05-06T09:23:29.466Z,8.10
2023-05-06T09:24:29.489Z,8.00
2023-05-06T09:25:29.457Z,8.10
2023-05-06T09:26:29.456Z,8.40
2023-05-06T09:27:29.422Z,7.90
2023-05-06T09:28:29.469Z,7.90
2023-05-06T09:29:29.421Z,8.20
2023-05-06T09:30:29.419Z,7.60
2023-05-06T09:31:29.465Z,7.30
2023-05-06T09:32:29.501Z,7.30
2023-05-06T09:33:29.374Z,7.20
2023-05-06T09:34:29.391Z,7.20
2023-05-06T09:35:29.488Z,6.90
2023-05-06T09:36:29.365Z,7.20
2023-05-06T09:37:29.331Z,8.40
2023-05-06T09:38:29.332Z,6.50
2023-05-06T09:39:29.300Z,6.60
2023-05-06T09:40:29.336Z,7.20
2023-05-06T09:41:29.285Z,6.80
2023-05-06T09:42:29.299Z,6.70
2023-05-06T09:43:29.263Z,6.60
2023-05-06T09:44:29.281Z,6.60
2023-05-06T09:45:29.244Z,6.70
2023-05-06T09:46:29.307Z,6.50
2023-05-06T09:47:29.231Z,6.80
2023-05-06T09:48:29.268Z,6.20
2023-05-06T09:49:29.204Z,6.70
2023-05-06T09:50:29.224Z,6.30
2023-05-06T09:51:29.187Z,6.30
2023-05-06T09:52:29.225Z,6.20
2023-05-06T09:53:29.179Z,6.00
2023-05-06T09:54:29.184Z,6.10
2023-05-06T09:55:29.149Z,6.10
2023-05-06T09:56:29.175Z,6.10
2023-05-06T09:57:29.130Z,6.00
2023-05-06T09:58:29.154Z,6.70
2023-05-06T09:59:29.124Z,5.80
2023-05-06T10:00:29.121Z,6.30
2023-05-06T10:01:36.669Z,5.40
2023-05-06T10:02:29.245Z,5.40
2023-05-06T10:03:29.248Z,5.60
2023-05-06T10:04:29.190Z,5.50
2023-05-06T10:05:29.066Z,6.20
2023-05-06T10:06:29.052Z,5.50
2023-05-06T10:07:29.025Z,5.60
2023-05-06T10:08:29.043Z,5.80
2023-05-06T10:09:29.006Z,5.60
2023-05-06T10:10:29.076Z,5.70
2023-05-06T10:11:28.987Z,5.60
2023-05-06T10:12:28.999Z,5.60
2023-05-06T10:13:28.969Z,5.30
2023-05-06T10:14:28.997Z,5.40
2023-05-06T10:15:28.949Z,6.40
2023-05-06T10:16:29.049Z,5.60
2023-05-06T10:17:28.950Z,4.60
2023-05-06T10:18:28.942Z,4.60
2023-05-06T10:19:29.542Z,3.00
2023-05-06T10:20:28.925Z,3.40
2023-05-06T10:21:28.927Z,3.30
2023-05-06T10:22:28.939Z,3.40
2023-05-06T10:23:28.870Z,3.80
2023-05-06T10:24:28.891Z,3.80
2023-05-06T10:25:28.860Z,3.80
2023-05-06T10:26:28.866Z,4.00
2023-05-06T10:27:28.827Z,4.20
2023-05-06T10:28:31.485Z,3.40
2023-05-06T10:29:28.837Z,3.40
2023-05-06T10:30:28.821Z,3.60
2023-05-06T10:31:28.810Z,4.60
2023-05-06T10:32:28.842Z,4.40
2023-05-06T10:33:28.768Z,4.30
2023-05-06T10:34:28.794Z,4.20
2023-05-06T10:35:28.743Z,4.30
2023-05-06T10:36:28.759Z,4.00
2023-05-06T10:37:28.718Z,4.50
2023-05-06T10:38:28.757Z,3.90
2023-05-06T10:39:28.704Z,3.90
2023-05-06T10:40:28.738Z,3.70
2023-05-06T10:41:28.707Z,3.40
2023-05-06T10:42:28.691Z,3.70
2023-05-06T10:43:28.673Z,3.30
2023-05-06T10:44:28.671Z,3.20
2023-05-06T10:45:28.687Z,3.50
2023-05-06T10:46:28.694Z,4.70
2023-05-06T10:47:28.642Z,4.20
2023-05-06T10:48:28.628Z,4.30
2023-05-06T10:49:28.606Z,4.50
2023-05-06T10:50:28.613Z,4.70
2023-05-06T10:51:28.573Z,4.90
2023-05-06T10:52:28.621Z,4.30
2023-05-06T10:53:28.561Z,3.80
2023-05-06T10:54:28.583Z,3.60
2023-05-06T10:55:28.566Z,3.70
2023-05-06T10:56:28.556Z,4.30
2023-05-06T10:57:28.546Z,5.20
2023-05-06T10:58:28.551Z,4.90
2023-05-06T10:59:28.521Z,4.70
2023-05-06T11:00:28.505Z,4.90
2023-05-06T11:01:28.561Z,5.00
2023-05-06T11:02:28.570Z,4.40
2023-05-06T11:03:28.634Z,4.30
2023-05-06T11:04:28.506Z,4.40
2023-05-06T11:05:28.431Z,4.10
2023-05-06T11:06:28.460Z,5.50
2023-05-06T11:07:28.445Z,4.10
2023-05-06T11:08:28.448Z,4.30
2023-05-06T11:09:28.436Z,4.50
2023-05-06T11:10:28.449Z,4.10
2023-05-06T11:11:28.394Z,3.80
2023-05-06T11:12:28.390Z,4.20
2023-05-06T11:13:28.602Z,4.40
2023-05-06T11:14:28.378Z,4.00
2023-05-06T11:15:28.350Z,4.30
2023-05-06T11:16:28.383Z,3.40
2023-05-06T11:17:28.372Z,3.90
2023-05-06T11:18:28.331Z,4.30
2023-05-06T11:19:28.304Z,3.90
2023-05-06T11:20:28.384Z,3.90
2023-05-06T11:21:28.290Z,3.60
2023-05-06T11:22:28.355Z,3.90
2023-05-06T11:23:28.274Z,3.80
2023-05-06T11:24:28.280Z,4.60
2023-05-06T11:25:28.248Z,3.90
2023-05-06T11:26:28.257Z,3.30
2023-05-06T11:27:28.227Z,2.90
2023-05-06T11:28:28.279Z,2.80
2023-05-06T11:29:28.207Z,3.10
2023-05-06T11:30:28.230Z,3.60
2023-05-06T11:31:28.263Z,3.70
2023-05-06T11:32:28.268Z,3.70
2023-05-06T11:33:28.184Z,3.80
2023-05-06T11:34:28.210Z,3.70
2023-05-06T11:35:28.154Z,3.80
2023-05-06T11:36:28.164Z,3.80
2023-05-06T11:37:28.192Z,3.90
2023-05-06T11:38:28.145Z,3.90
2023-05-06T11:39:28.108Z,4.20
2023-05-06T11:40:28.153Z,4.00
2023-05-06T11:41:28.088Z,4.10
2023-05-06T11:42:28.111Z,3.60
2023-05-06T11:43:28.082Z,3.40
2023-05-06T11:44:28.083Z,3.70
2023-05-06T11:45:28.052Z,3.50
2023-05-06T11:46:28.124Z,3.70
2023-05-06T11:47:28.068Z,3.60
2023-05-06T11:48:28.062Z,3.70
2023-05-06T11:49:28.031Z,3.40
2023-05-06T11:50:28.025Z,3.40
2023-05-06T11:51:28.001Z,3.50
2023-05-06T11:52:28.034Z,3.30
2023-05-06T11:53:28.009Z,3.70
2023-05-06T11:54:28.100Z,3.30
2023-05-06T11:55:27.962Z,3.50
2023-05-06T11:56:27.980Z,3.50
2023-05-06T11:57:27.939Z,4.30
2023-05-06T11:58:28.011Z,3.40
2023-05-06T11:59:27.929Z,3.00
2023-05-06T12:00:27.952Z,3.20
2023-05-06T12:01:27.909Z,2.90
2023-05-06T12:02:27.999Z,3.10
2023-05-06T12:03:28.075Z,2.90
2023-05-06T12:04:27.942Z,2.90
2023-05-06T12:05:27.867Z,2.70
2023-05-06T12:06:27.868Z,2.60
2023-05-06T12:07:27.837Z,2.40
2023-05-06T12:08:28.610Z,2.70
2023-05-06T12:09:27.829Z,2.70
2023-05-06T12:10:27.847Z,2.80
2023-05-06T12:11:27.876Z,2.80
2023-05-06T12:12:27.819Z,2.70
2023-05-06T12:13:27.794Z,2.80
2023-05-06T12:14:27.797Z,3.00
2023-05-06T12:15:27.761Z,2.50
2023-05-06T12:16:27.847Z,2.50
2023-05-06T12:17:27.819Z,2.50
2023-05-06T12:18:27.778Z,2.60
2023-05-06T12:19:27.725Z,2.90
2023-05-06T12:20:27.733Z,2.70
2023-05-06T12:21:27.718Z,2.70
2023-05-06T12:22:27.724Z,2.50
2023-05-06T12:23:27.675Z,3.00
2023-05-06T12:24:27.712Z,2.80
2023-05-06T12:25:27.663Z,2.60
2023-05-06T12:26:27.674Z,2.90
2023-05-06T12:27:27.645Z,2.40
2023-05-06T12:28:27.802Z,2.80
2023-05-06T12:29:27.629Z,2.60
2023-05-06T12:30:27.641Z,2.60
2023-05-06T12:31:27.660Z,2.40
2023-05-06T12:32:27.678Z,2.50
2023-05-06T12:33:27.588Z,2.60
2023-05-06T12:34:27.616Z,2.40
2023-05-06T12:35:27.597Z,2.60
2023-05-06T12:36:27.571Z,2.70
2023-05-06T12:37:27.572Z,2.80
2023-05-06T12:38:27.539Z,2.60
2023-05-06T12:39:27.579Z,2.60
2023-05-06T12:40:27.546Z,2.70
2023-05-06T12:41:27.534Z,2.70
2023-05-06T12:42:27.515Z,2.80
2023-05-06T12:43:27.517Z,2.80
2023-05-06T12:44:27.474Z,2.30
2023-05-06T12:45:27.625Z,2.40
2023-05-06T12:46:27.516Z,2.70
2023-05-06T12:47:27.588Z,3.20
2023-05-06T12:48:27.445Z,2.80
2023-05-06T12:49:27.467Z,2.50
2023-05-06T12:50:27.429Z,2.60
2023-05-06T12:51:28.337Z,2.50
2023-05-06T12:52:27.433Z,2.60
2023-05-06T12:53:27.414Z,2.30
2023-05-06T12:54:27.379Z,2.70
2023-05-06T12:55:27.511Z,2.50
2023-05-06T12:56:27.365Z,2.50
2023-05-06T12:57:27.390Z,2.60
2023-05-06T12:58:27.382Z,2.80
2023-05-06T12:59:27.366Z,2.70
2023-05-06T13:00:27.326Z,3.40